Latest Weather Observations for Bendigo

IDV60801

Issued at 11:35 am EST Saturday 19 April 2014 (issued every 30 minutes, with the page automatically refreshed every 10 minutes)

About weather observations | Map of weather stations | Latest weather observations for VIC | Other Formats
Station Details ID: 081123 Name: BENDIGO AIRPORT Lat: -36.74 Lon: 144.33 Height: 208.0 m
Data from the previous 72 hours. | See also: Recent months at Bendigo
Date/Time
EST
Temp
°C
App
Temp
°C
Dew
Point
Rel
Hum
%
Delta-T
°C
Wind Press
QNH
hPa
Press
MSL
hPa
Rain
since 9 am
mm
Dir
 
Spd
km/h
Gust
km/h
Spd
kts
Gust
kts
19/11:30am 15.0 12.7 4.7 50 4.8 SE 6 20 3 11 1020.8 - 0.0
19/11:00am 14.1 9.2 4.1 51 4.6 SW 19 26 10 14 1020.9 - 0.0
19/10:30am 14.0 8.7 5.1 55 4.2 SSW 22 30 12 16 1021.1 - 0.0
19/10:00am 13.4 7.7 4.8 56 4.0 SW 24 32 13 17 1021.1 - 0.0
19/09:30am 13.1 8.3 4.8 57 3.9 SW 19 26 10 14 1021.0 - 0.0
19/09:00am 12.0 8.2 5.9 66 2.9 SW 15 22 8 12 1021.0 1020.9 0.0
19/08:30am 10.6 7.0 6.6 76 1.9 SW 15 20 8 11 1020.9 - 0.0
19/08:00am 9.3 6.0 6.4 82 1.4 SW 13 20 7 11 1020.8 - 0.0
19/07:30am 8.1 5.1 6.1 87 0.9 WSW 11 15 6 8 1020.5 - 0.0
19/07:00am 7.0 4.7 5.5 90 0.7 SW 7 9 4 5 1020.2 - 0.0
19/06:30am 6.9 4.2 5.5 91 0.6 WSW 9 11 5 6 1020.0 - 0.0
19/06:00am 7.4 4.7 5.7 89 0.8 WSW 9 13 5 7 1019.9 1019.8 0.0
19/05:30am 7.8 4.8 5.9 88 0.9 WSW 11 15 6 8 1019.6 - 0.0
19/05:00am 7.3 4.6 5.6 89 0.8 WSW 9 13 5 7 1019.5 - 0.0
19/04:30am 6.8 4.4 5.1 89 0.8 WSW 7 11 4 6 1019.5 - 0.0
19/04:00am 4.6 3.2 3.6 93 0.4 CALM 0 0 0 0 1019.6 - 0.0
19/03:30am 5.7 4.5 4.5 92 0.5 CALM 0 0 0 0 1019.7 - 0.0
19/03:00am 5.6 4.3 3.9 89 0.7 CALM 0 6 0 3 1019.7 1019.6 0.0
19/02:30am 7.3 4.9 5.4 88 0.9 SW 7 13 4 7 1020.0 - 0.0
19/02:00am 6.8 4.6 5.1 89 0.8 SW 6 9 3 5 1020.1 - 0.0
19/01:30am 5.5 3.8 4.2 91 0.6 SW 2 6 1 3 1020.1 - 0.0
19/01:00am 6.4 4.1 4.6 88 0.8 WSW 6 9 3 5 1020.4 - 0.0
19/12:30am 6.1 4.0 3.9 86 0.9 SW 4 9 2 5 1020.6 - 0.0
19/12:00am 4.7 2.4 2.9 88 0.7 S 4 7 2 4 1020.4 1020.3 0.0
 
Date/Time
EST
Temp
°C
App
Temp
°C
Dew
Point
Rel
Hum
%
Delta-T
°C
Wind Press
QNH
hPa
Press
MSL
hPa
Rain
since 9 am
mm
Dir
 
Spd
km/h
Gust
km/h
Spd
kts
Gust
kts
18/11:30pm 5.2 3.6 2.7 84 1.0 SW 0 6 0 3 1020.6 - 0.0
18/11:00pm 7.9 6.7 4.5 79 1.5 CALM 0 0 0 0 1020.7 - 0.0
18/10:30pm 9.5 7.2 4.9 73 2.1 SW 6 13 3 7 1020.8 - 0.0
18/10:00pm 9.6 6.7 4.8 72 2.2 SW 9 15 5 8 1020.6 - 0.0
18/09:30pm 10.0 7.2 5.0 71 2.3 SW 9 11 5 6 1020.7 - 0.0
18/09:00pm 10.7 8.4 4.8 67 2.7 SW 6 9 3 5 1020.5 1020.4 0.0
18/08:30pm 11.9 9.5 5.1 63 3.2 SW 7 11 4 6 1020.2 - 0.0
18/08:00pm 11.3 8.9 5.2 66 2.8 SW 7 13 4 7 1019.9 - 0.0
18/07:30pm 12.5 9.7 5.2 61 3.4 SSW 9 19 5 10 1019.6 - 0.0
18/07:00pm 13.0 10.1 4.9 58 3.8 S 9 17 5 9 1019.2 - 0.0
18/06:30pm 14.1 10.5 4.9 54 4.3 S 13 22 7 12 1018.8 - 0.0
18/06:00pm 14.5 8.9 3.3 47 5.1 SW 22 35 12 19 1018.3 1018.1 0.0
18/05:30pm 15.3 10.7 3.8 46 5.3 SSW 17 28 9 15 1017.9 - 0.0
18/05:00pm 16.1 10.8 2.9 41 6.1 SSW 20 35 11 19 1017.7 - 0.0
18/04:30pm 17.0 11.0 3.3 40 6.4 SSW 24 35 13 19 1017.4 - 0.0
18/04:00pm 17.6 11.8 2.4 36 7.0 SW 22 32 12 17 1017.1 - 0.0
18/03:30pm 17.8 10.8 4.0 40 6.6 SW 30 46 16 25 1016.8 - 0.0
18/03:00pm 17.4 11.7 6.9 50 5.3 SSW 26 39 14 21 1016.6 1016.5 0.0
18/02:30pm 17.3 12.1 9.0 58 4.3 SW 26 37 14 20 1016.5 - 0.0
18/02:00pm 17.2 12.4 8.9 58 4.3 SW 24 35 13 19 1016.2 - 0.0
18/01:30pm 16.6 11.3 9.8 64 3.6 SSW 28 39 15 21 1016.4 - 0.0
18/01:11pm 16.4 10.8 10.3 67 3.3 SW 30 43 16 23 1016.6 - 0.0
18/01:00pm 17.5 12.7 11.5 68 3.3 SW 28 41 15 22 1016.6 - 0.0
18/12:51pm 15.6 10.7 11.4 76 2.3 SW 28 46 15 25 1016.5 - 0.0
18/12:30pm 15.4 11.3 11.6 78 2.1 SW 24 41 13 22 1016.4 - 0.0
18/12:14pm 14.8 9.8 12.3 85 1.4 SW 30 48 16 26 1016.6 - 0.0
18/12:06pm 17.1 10.5 11.2 68 3.2 SW 37 48 20 26 1016.2 - 0.0
18/12:00pm 18.9 14.7 9.9 56 4.8 W 22 35 12 19 1016.1 1016.0 0.0
18/11:30am 19.4 15.5 10.7 57 4.8 W 22 37 12 20 1016.1 - 0.0
18/11:00am 18.4 15.1 11.5 64 3.8 W 20 32 11 17 1016.5 - 0.0
18/10:54am 18.3 13.9 11.8 66 3.6 W 26 37 14 20 1016.6 - 0.0
18/10:30am 17.7 13.6 11.5 67 3.4 W 24 39 13 21 1016.7 - 0.0
18/10:00am 17.7 14.3 11.3 66 3.5 W 20 32 11 17 1016.7 - 0.0
18/09:30am 15.9 15.0 10.7 71 2.8 NW 6 11 3 6 1016.9 - 0.0
18/09:00am 13.0 13.0 9.8 81 1.7 CALM 0 0 0 0 1017.2 1017.0 0.0
18/08:30am 11.7 11.6 9.4 86 1.2 CALM 0 0 0 0 1017.2 - 0.0
18/08:00am 11.1 10.9 9.2 88 1.0 CALM 0 0 0 0 1017.1 - 0.0
18/07:30am 10.3 10.1 8.9 91 0.7 CALM 0 0 0 0 1016.8 - 0.0
18/07:00am 9.8 9.5 8.6 92 0.6 CALM 0 7 0 4 1016.8 - 0.0
18/06:30am 9.1 8.7 8.2 94 0.4 CALM 0 0 0 0 1016.6 - 0.0
18/06:02am 8.7 8.2 7.8 94 0.4 CALM 0 0 0 0 1016.6 - 0.0
18/06:00am 8.6 8.1 7.7 94 0.4 CALM 0 0 0 0 1016.5 1016.4 0.0
18/05:30am 8.3 7.7 7.5 95 0.4 CALM 0 0 0 0 1016.6 - 0.0
18/05:00am 7.3 6.5 6.6 95 0.3 CALM 0 0 0 0 1016.8 - 0.0
18/04:30am 7.1 6.2 6.2 94 0.4 CALM 0 0 0 0 1016.7 - 0.0
18/04:00am 7.5 6.8 6.8 95 0.3 CALM 0 0 0 0 1016.7 - 0.0
18/03:30am 8.5 8.0 7.7 95 0.4 CALM 0 0 0 0 1016.6 - 0.0
18/03:00am 7.9 7.1 6.5 91 0.6 CALM 0 0 0 0 1016.7 1016.6 0.0
18/02:30am 8.4 7.8 7.5 94 0.4 CALM 0 0 0 0 1016.9 - 0.0
18/02:00am 8.6 8.1 7.7 94 0.4 CALM 0 0 0 0 1017.3 - 0.0
18/01:30am 8.3 7.6 6.9 91 0.7 CALM 0 0 0 0 1017.6 - 0.0
18/01:00am 8.8 8.2 7.6 92 0.6 CALM 0 0 0 0 1017.9 - 0.0
18/12:30am 9.2 8.6 7.3 88 0.9 CALM 0 0 0 0 1018.2 - 0.0
18/12:00am 10.6 10.2 8.4 86 1.1 CALM 0 0 0 0 1018.4 1018.2 0.0
 
Date/Time
EST
Temp
°C
App
Temp
°C
Dew
Point
Rel
Hum
%
Delta-T
°C
Wind Press
QNH
hPa
Press
MSL
hPa
Rain
since 9 am
mm
Dir
 
Spd
km/h
Gust
km/h
Spd
kts
Gust
kts
17/11:56pm 10.7 10.4 8.6 87 1.0 CALM 0 0 0 0 1018.5 - 0.0
17/11:30pm 10.5 10.1 8.4 87 1.0 CALM 0 0 0 0 1018.6 - 0.0
17/11:00pm 10.0 9.5 7.8 86 1.1 CALM 0 0 0 0 1018.8 - 0.0
17/10:58pm 10.1 9.6 7.9 86 1.1 CALM 0 0 0 0 1018.8 - 0.0
17/10:30pm 10.5 10.0 7.7 83 1.4 CALM 0 0 0 0 1019.0 - 0.0
17/10:00pm 10.7 10.2 7.8 82 1.4 CALM 0 0 0 0 1019.1 - 0.0
17/09:30pm 11.3 10.9 8.3 82 1.5 CALM 0 0 0 0 1019.1 - 0.0
17/09:00pm 12.5 12.4 9.3 81 1.6 CALM 0 0 0 0 1019.0 1018.9 0.0
17/08:30pm 12.0 11.8 9.0 82 1.5 CALM 0 0 0 0 1019.0 - 0.0
17/08:00pm 12.2 11.9 8.5 78 1.9 CALM 0 0 0 0 1019.1 - 0.0
17/07:30pm 13.7 13.5 9.2 74 2.3 CALM 0 0 0 0 1019.0 - 0.0
17/07:00pm 14.3 14.2 9.3 72 2.6 CALM 0 0 0 0 1018.8 - 0.0
17/06:30pm 15.8 15.7 9.5 66 3.3 CALM 0 0 0 0 1018.8 - 0.0
17/06:00pm 18.4 18.2 9.2 55 4.9 CALM 0 0 0 0 1018.6 1018.4 0.0
17/05:30pm 20.8 20.2 9.1 47 6.3 NW 2 7 1 4 1018.6 - 0.0
17/05:00pm 21.5 19.5 8.7 44 6.8 NW 9 13 5 7 1018.4 - 0.0
17/04:30pm 22.2 19.1 8.7 42 7.2 NW 15 20 8 11 1018.6 - 0.0
17/04:00pm 21.9 18.7 8.4 42 7.2 NNW 15 20 8 11 1018.8 - 0.0
17/03:30pm 22.5 19.8 9.0 42 7.3 NW 13 19 7 10 1019.0 - 0.0
17/03:00pm 22.4 19.8 9.2 43 7.1 NW 13 20 7 11 1019.2 1019.1 0.0
17/02:30pm 22.7 19.3 9.1 42 7.4 NW 17 22 9 12 1019.4 - 0.0
17/02:00pm 21.7 19.0 8.9 44 6.9 NNW 13 20 7 11 1019.6 - 0.0
17/01:30pm 21.9 18.9 9.1 44 6.9 NW 15 20 8 11 1019.8 - 0.0
17/01:00pm 21.9 19.2 9.1 44 6.9 WNW 13 19 7 10 1020.1 - 0.0
17/12:30pm 21.4 18.5 9.6 47 6.4 NNW 15 24 8 13 1020.4 - 0.0
17/12:00pm 21.0 18.9 9.6 48 6.1 WNW 11 17 6 9 1020.9 1020.8 0.0
17/11:30am 20.6 19.3 9.8 50 5.9 NNW 7 19 4 10 1021.2 - 0.0
17/11:00am 20.1 18.3 10.8 55 5.1 N 11 15 6 8 1021.3 - 0.0
17/10:30am 19.1 17.6 9.3 53 5.2 N 7 11 4 6 1021.3 - 0.0
17/10:00am 18.4 17.6 9.7 57 4.6 NNW 4 9 2 5 1021.3 - 0.0
17/09:30am 17.3 17.2 10.7 65 3.6 E 2 7 1 4 1021.3 - 0.0
17/09:00am 14.8 13.6 10.4 75 2.3 SSE 7 9 4 5 1021.5 1021.4 0.0
17/08:30am 13.0 11.6 9.6 80 1.8 SSE 7 11 4 6 1021.4 - 0.0
17/08:00am 11.5 10.2 9.8 89 0.9 SSE 7 11 4 6 1021.1 - 0.0
17/07:30am 8.5 8.0 7.7 95 0.4 CALM 0 6 0 3 1020.9 - 0.0
17/07:00am 7.3 6.5 6.4 94 0.4 CALM 0 0 0 0 1020.7 - 0.0
17/06:30am 7.8 7.2 7.2 96 0.3 CALM 0 0 0 0 1020.4 - 0.0
17/06:00am 7.2 6.4 6.6 96 0.3 CALM 0 0 0 0 1020.3 1020.2 0.0
17/05:30am 7.3 6.5 6.7 96 0.3 CALM 0 0 0 0 1020.1 - 0.0
17/05:02am 7.0 6.1 6.1 94 0.4 CALM 0 0 0 0 1020.1 - 0.0
17/05:00am 7.0 6.1 6.1 94 0.4 CALM 0 0 0 0 1020.1 - 0.0
17/04:30am 7.1 6.2 6.2 94 0.4 CALM 0 0 0 0 1019.8 - 0.0
17/04:00am 8.0 7.4 7.2 95 0.4 CALM 0 0 0 0 1019.6 - 0.0
17/03:30am 7.9 7.2 6.8 93 0.5 CALM 0 0 0 0 1019.6 - 0.0
17/03:00am 7.9 7.1 6.5 91 0.6 CALM 0 0 0 0 1019.6 1019.5 0.0
17/02:30am 9.4 8.9 7.8 90 0.8 CALM 0 0 0 0 1019.6 - 0.0
17/02:00am 9.7 9.1 7.5 86 1.1 CALM 0 0 0 0 1019.8 - 0.0
17/01:30am 10.7 9.1 7.8 82 1.4 S 6 7 3 4 1019.8 - 0.0
17/01:00am 10.9 8.8 8.1 83 1.4 SSE 9 13 5 7 1019.8 - 0.0
17/12:30am 9.1 8.1 7.5 90 0.8 S 2 9 1 5 1019.7 - 0.0
17/12:00am 9.1 8.5 7.4 89 0.8 CALM 0 0 0 0 1019.8 1019.7 0.0
 
Date/Time
EST
Temp
°C
App
Temp
°C
Dew
Point
Rel
Hum
%
Delta-T
°C
Wind Press
QNH
hPa
Press
MSL
hPa
Rain
since 9 am
mm
Dir
 
Spd
km/h
Gust
km/h
Spd
kts
Gust
kts
16/11:30pm 8.8 7.9 7.6 92 0.6 W 2 7 1 4 1019.8 - 0.0
16/11:00pm 8.9 8.3 7.4 90 0.7 CALM 0 0 0 0 1019.7 - 0.0
16/10:30pm 9.8 9.4 8.1 89 0.8 CALM 0 0 0 0 1019.7 - 0.0
16/10:00pm 9.4 8.9 7.7 89 0.8 CALM 0 0 0 0 1019.8 - 0.0
16/09:30pm 9.8 9.3 7.9 88 0.9 CALM 0 0 0 0 1020.0 - 0.0
16/09:00pm 10.0 9.5 7.9 87 1.0 CALM 0 0 0 0 1020.2 1020.1 0.0
16/08:30pm 11.1 10.7 8.3 83 1.4 CALM 0 0 0 0 1020.0 - 0.0
16/08:00pm 11.6 11.3 8.8 83 1.4 CALM 0 0 0 0 1020.0 - 0.0
16/07:30pm 11.7 11.3 8.4 80 1.6 CALM 0 0 0 0 1020.0 - 0.0
16/07:00pm 12.2 11.9 8.5 78 1.9 CALM 0 0 0 0 1019.8 - 0.0
16/06:30pm 14.1 13.9 9.1 72 2.6 CALM 0 0 0 0 1019.5 - 0.0
16/06:00pm 15.1 15.1 9.7 70 2.8 CALM 0 0 0 0 1019.3 1019.2 0.0
16/05:30pm 17.2 17.1 9.4 60 4.1 CALM 0 0 0 0 1019.0 - 0.0
16/05:00pm 18.8 18.1 8.7 52 5.3 W 2 7 1 4 1018.9 - 0.0
16/04:30pm 19.0 18.0 8.9 52 5.3 W 4 9 2 5 1018.8 - 0.0
16/04:00pm 19.6 17.7 8.9 50 5.7 WNW 9 19 5 10 1018.8 - 0.0
16/03:30pm 20.1 17.4 9.1 49 5.9 WNW 13 20 7 11 1019.0 - 0.0
16/03:27pm 19.7 16.3 9.0 50 5.7 NW 17 20 9 11 1019.0 - 0.0
16/03:00pm 19.9 17.4 8.3 47 6.1 W 11 17 6 9 1019.1 1019.0 0.0
16/02:30pm 19.8 18.1 8.5 48 5.9 W 7 20 4 11 1019.0 - 0.0
16/02:00pm 19.3 17.3 8.6 50 5.6 W 9 20 5 11 1019.1 - 0.0
16/01:30pm 19.9 16.9 7.6 45 6.4 WNW 13 20 7 11 1019.2 - 0.0
16/01:00pm 19.5 17.8 8.5 49 5.8 W 7 15 4 8 1019.4 - 0.0
16/12:30pm 19.7 17.2 9.6 52 5.4 WNW 13 24 7 13 1019.9 - 0.0
16/12:00pm 18.8 16.0 8.7 52 5.3 WNW 13 20 7 11 1020.4 1020.3 0.0

Other Formats:

Comma delimited format used in spreadsheet applications
http://www.bom.gov.au/fwo/IDV60801/IDV60801.94855.axf

JavaScript Object Notation format (JSON) in row-major order
http://www.bom.gov.au/fwo/IDV60801/IDV60801.94855.json